Time;durP1;ratioP1;P1;durP2;ratioP2;P2;SDS_P1;SDS_P2;PMS_P1;PMS_P2;Temp;Humidity;BMP_temperature;BMP_pressure;BME280_temperature;BME280_humidity;BME280_pressure;Samples;Min_cycle;Max_cycle;Signal;HPM_P1;HPM_P2
2022/09/19 00:01:50;;;;;;;4.15;2.47;;;;;;;26.89;42.57;99877.38;6213411;23;20364;-78
2022/09/19 00:04:20;;;;;;;4.65;2.33;;;;;;;26.94;42.32;99885.59;6213781;23;20460;-78
2022/09/19 00:06:49;;;;;;;4.13;2.72;;;;;;;26.89;42.32;99868.78;6214100;23;20032;-77
2022/09/19 00:09:19;;;;;;;6.45;3.20;;;;;;;26.98;42.44;99889.25;6212830;23;20048;-76
2022/09/19 00:11:47;;;;;;;5.13;2.85;;;;;;;27.06;42.18;99905.22;6211605;23;20464;-79
2022/09/19 00:14:18;;;;;;;6.07;3.57;;;;;;;27.07;43.00;99903.97;6211313;23;20020;-78
2022/09/19 00:16:46;;;;;;;5.20;3.30;;;;;;;27.15;43.14;99922.88;6211474;23;20035;-78
2022/09/19 00:19:17;;;;;;;9.30;3.65;;;;;;;26.89;43.76;99888.84;6214362;23;20051;-78
2022/09/19 00:21:46;;;;;;;5.97;3.75;;;;;;;26.93;43.96;99898.25;6211890;23;20028;-78
2022/09/19 00:27:05;;;;;;;5.43;3.42;;;;;;;26.88;44.36;99907.25;6213902;23;20020;-78
2022/09/19 00:29:34;;;;;;;6.82;4.15;;;;;;;26.59;45.23;99886.34;6213874;23;20025;-77
2022/09/19 00:32:05;;;;;;;9.88;3.53;;;;;;;26.61;45.32;99907.63;6212816;23;20174;-78
2022/09/19 00:34:32;;;;;;;7.63;3.42;;;;;;;26.29;45.81;99872.31;6214064;23;20020;-77
2022/09/19 00:36:59;;;;;;;8.45;3.83;;;;;;;25.95;46.33;99846.88;6212755;23;20042;-77
2022/09/19 00:39:27;;;;;;;6.47;4.00;;;;;;;26.09;46.81;99884.13;6214227;23;20024;-78
2022/09/19 00:41:54;;;;;;;6.15;3.95;;;;;;;25.96;46.96;99882.81;6225537;23;20024;-78
2022/09/19 00:44:27;;;;;;;6.82;3.67;;;;;;;25.99;47.24;99899.19;6214169;23;20050;-79
2022/09/19 00:46:56;;;;;;;6.90;4.43;;;;;;;25.70;47.57;99873.25;6243148;23;20026;-78
2022/09/19 00:49:26;;;;;;;15.32;5.55;;;;;;;25.63;47.49;99870.34;6244995;23;20355;-78
2022/09/19 00:52:02;;;;;;;9.35;4.13;;;;;;;25.23;48.33;99820.72;6216593;23;20030;-79
2022/09/19 00:54:42;;;;;;;23.75;4.22;;;;;;;25.32;47.97;99850.97;6244644;23;20099;-78
2022/09/19 00:57:12;;;;;;;5.25;3.88;;;;;;;25.52;48.49;99886.63;6218219;23;20019;-77
2022/09/19 00:59:43;;;;;;;7.95;4.35;;;;;;;25.50;48.42;99894.78;6216194;23;20028;-78
2022/09/19 01:02:10;;;;;;;9.75;4.80;;;;;;;24.97;48.69;99821.72;6243843;23;20447;-77
2022/09/19 01:04:38;;;;;;;7.35;3.60;;;;;;;25.22;48.83;99867.63;6244358;23;20024;-79
2022/09/19 01:07:14;;;;;;;6.80;4.18;;;;;;;25.38;48.78;99893.06;6243914;23;20020;-77
2022/09/19 01:10:00;;;;;;;8.20;4.10;;;;;;;25.21;49.05;99888.84;6217272;23;20024;-78
2022/09/19 01:13:04;;;;;;;5.63;3.40;;;;;;;25.33;48.33;99902.00;6242924;23;20447;-78
2022/09/19 01:15:31;;;;;;;5.28;3.38;;;;;;;25.45;48.32;99906.59;6223377;23;20024;-78
2022/09/19 01:18:03;;;;;;;7.38;3.25;;;;;;;25.46;48.28;99888.22;6244508;23;20020;-78
2022/09/19 01:20:41;;;;;;;5.07;3.72;;;;;;;25.50;48.32;99889.91;6244834;23;20447;-78
2022/09/19 01:23:49;;;;;;;5.18;3.00;;;;;;;25.56;48.29;99886.66;6243387;23;20024;-78
2022/09/19 01:26:34;;;;;;;5.35;3.45;;;;;;;25.55;48.55;99885.03;6119962;23;20052;-78
2022/09/19 01:29:30;;;;;;;5.03;3.08;;;;;;;25.41;48.33;99863.69;6207822;23;20027;-78
2022/09/19 01:31:59;;;;;;;7.72;3.47;;;;;;;25.37;48.33;99857.13;6231721;23;20024;-78
2022/09/19 01:34:34;;;;;;;6.28;3.35;;;;;;;25.70;48.11;99886.72;6241636;23;20021;-78
2022/09/19 01:37:07;;;;;;;4.28;3.28;;;;;;;25.63;47.75;99878.94;6217206;23;20506;-77
2022/09/19 01:39:38;;;;;;;9.73;3.70;;;;;;;25.67;47.91;99865.47;6216643;23;20016;-78
2022/09/19 01:42:05;;;;;;;6.57;3.50;;;;;;;25.72;47.56;99884.31;6242063;23;20038;-77
2022/09/19 01:44:32;;;;;;;8.90;3.42;;;;;;;25.66;47.31;99863.03;6216054;23;20024;-77
2022/09/19 01:47:29;;;;;;;6.43;3.33;;;;;;;25.86;47.20;99884.41;6212745;23;20024;-78
2022/09/19 01:50:18;;;;;;;8.88;3.60;;;;;;;25.89;47.23;99872.16;6215552;23;20459;-78
2022/09/19 01:53:10;;;;;;;4.55;3.63;;;;;;;25.89;47.39;99879.94;6216131;23;20024;-78
2022/09/19 01:55:52;;;;;;;5.45;3.15;;;;;;;25.90;47.24;99870.13;6243300;23;20023;-79
2022/09/19 01:58:21;;;;;;;5.93;3.50;;;;;;;25.84;47.11;99872.53;6242523;23;20463;-78
2022/09/19 02:01:40;;;;;;;6.30;3.40;;;;;;;25.45;47.53;99850.25;6242536;23;20043;-79
2022/09/19 02:04:14;;;;;;;4.90;3.20;;;;;;;25.58;47.69;99865.03;6097169;23;20052;-78
2022/09/19 02:06:43;;;;;;;4.68;3.28;;;;;;;25.51;48.12;99868.66;6095954;23;20470;-78
2022/09/19 02:09:22;;;;;;;5.82;2.88;;;;;;;25.40;47.96;99872.66;6173862;23;20024;-78
2022/09/19 02:11:52;;;;;;;4.97;2.67;;;;;;;25.03;48.62;99848.69;6216222;23;20463;-79
2022/09/19 02:14:22;;;;;;;;;;;;;;;24.90;49.62;99866.53;6243632;23;20026;-78
2022/09/19 02:17:00;;;;;;;9.18;3.38;;;;;;;24.69;50.01;99832.91;6243944;23;19915;-78
2022/09/19 02:19:33;;;;;;;4.78;3.15;;;;;;;24.68;49.41;99836.94;6219260;23;20459;-78
2022/09/19 02:22:08;;;;;;;9.75;3.75;;;;;;;24.95;49.38;99864.13;6220215;23;20020;-78
2022/09/19 02:24:40;;;;;;;4.43;2.50;;;;;;;24.98;48.95;99845.38;6218751;23;20459;-78
2022/09/19 02:27:12;;;;;;;5.43;2.88;;;;;;;24.93;48.85;99828.63;6217733;23;20031;-77
2022/09/19 02:29:46;;;;;;;6.93;2.60;;;;;;;25.00;48.41;99822.97;6245137;23;20031;-78
2022/09/19 02:32:13;;;;;;;5.07;2.75;;;;;;;25.10;48.56;99829.97;6246004;23;20020;-78
2022/09/19 02:34:40;;;;;;;4.30;2.65;;;;;;;25.30;47.90;99839.94;6244782;23;20473;-78
2022/09/19 02:37:12;;;;;;;6.05;3.00;;;;;;;25.43;47.87;99866.13;6192978;23;20020;-77
2022/09/19 02:39:48;;;;;;;4.68;2.72;;;;;;;25.37;47.96;99857.13;6218875;23;20020;-78
2022/09/19 02:42:22;;;;;;;5.72;3.25;;;;;;;25.16;47.80;99819.81;6244118;23;20020;-79
2022/09/19 02:45:02;;;;;;;4.95;2.72;;;;;;;25.36;48.00;99860.38;6216579;23;20016;-78
2022/09/19 02:47:56;;;;;;;5.28;2.60;;;;;;;25.26;48.37;99850.50;6218229;23;20024;-77
2022/09/19 02:50:58;;;;;;;6.47;2.90;;;;;;;25.29;48.00;99856.25;6218346;23;20031;-79
2022/09/19 02:53:29;;;;;;;4.47;2.47;;;;;;;25.07;48.46;99831.59;6217725;23;20027;-79
2022/09/19 02:56:01;;;;;;;4.25;2.97;;;;;;;24.96;48.75;99825.78;6217220;23;20354;-78
2022/09/19 02:58:39;;;;;;;4.63;2.83;;;;;;;24.68;48.93;99794.13;6217298;23;20020;-78
2022/09/19 03:01:11;;;;;;;3.85;2.63;;;;;;;24.88;49.07;99843.25;6242906;23;20543;-78
2022/09/19 03:06:42;;;;;;;4.28;2.97;;;;;;;24.57;49.93;99836.84;6245936;23;20016;-78
2022/09/19 03:09:11;;;;;;;4.90;2.85;;;;;;;24.65;50.15;99861.41;6218702;23;20020;-79
2022/09/19 03:11:42;;;;;;;5.55;2.50;;;;;;;24.59;50.45;99851.56;6217529;23;20028;-78
2022/09/19 03:14:10;;;;;;;8.50;3.47;;;;;;;24.32;50.49;99823.13;6217753;23;20382;-78
2022/09/19 03:16:42;;;;;;;6.13;2.90;;;;;;;24.56;50.06;99850.31;6217264;23;20348;-78
2022/09/19 03:19:10;;;;;;;3.35;2.17;;;;;;;24.38;49.75;99802.81;6217013;23;20101;-77
2022/09/19 03:21:37;;;;;;;4.28;2.63;;;;;;;24.52;49.41;99811.53;6244296;23;20024;-79
2022/09/19 03:24:05;;;;;;;4.72;1.90;;;;;;;24.84;49.11;99846.06;6244849;23;20024;-79
2022/09/19 03:26:34;;;;;;;3.55;2.53;;;;;;;24.81;49.06;99807.69;6242618;23;20020;-79
2022/09/19 03:29:03;;;;;;;4.53;2.50;;;;;;;25.00;48.55;99837.25;6242964;23;20042;-80
2022/09/19 03:31:31;;;;;;;3.85;2.08;;;;;;;24.93;48.65;99826.56;6217525;23;20119;-78
2022/09/19 03:33:58;;;;;;;4.60;2.60;;;;;;;25.02;48.50;99847.03;6217726;23;20430;-77
2022/09/19 03:36:28;;;;;;;4.78;2.92;;;;;;;24.90;48.85;99827.38;6216571;23;20022;-78
2022/09/19 03:39:01;;;;;;;4.97;2.38;;;;;;;24.67;49.03;99796.16;6244169;23;20091;-78
2022/09/19 03:41:30;;;;;;;4.00;2.25;;;;;;;24.78;49.30;99819.91;6245050;23;20020;-78
2022/09/19 03:43:59;;;;;;;3.28;2.30;;;;;;;24.80;49.01;99817.50;6219469;23;20020;-78
2022/09/19 03:46:30;;;;;;;4.95;2.03;;;;;;;24.52;49.48;99772.38;6220334;23;20016;-79
2022/09/19 03:49:00;;;;;;;5.50;3.65;;;;;;;24.93;49.12;99842.91;6217887;23;20152;-78
2022/09/19 03:51:27;;;;;;;3.80;2.45;;;;;;;24.68;49.17;99797.78;6216392;23;20021;-79
2022/09/19 03:53:54;;;;;;;4.07;2.55;;;;;;;24.85;49.14;99826.91;6218704;23;20026;-79
2022/09/19 03:56:21;;;;;;;4.10;2.35;;;;;;;24.80;49.60;99822.38;6218263;23;20030;-78
2022/09/19 03:58:48;;;;;;;3.20;2.40;;;;;;;24.79;49.07;99810.16;6216613;23;20024;-77
2022/09/19 04:01:15;;;;;;;3.53;2.25;;;;;;;24.63;49.30;99792.47;6217365;23;20462;-78
2022/09/19 04:03:49;;;;;;;5.35;2.67;;;;;;;24.63;49.41;99795.31;6245830;23;20094;-79
2022/09/19 04:06:16;;;;;;;4.43;2.37;;;;;;;24.90;49.52;99832.25;6217365;23;20031;-79
2022/09/19 04:08:44;;;;;;;3.97;2.30;;;;;;;24.94;48.89;99828.22;6218504;23;20024;-79
2022/09/19 04:11:12;;;;;;;3.88;2.20;;;;;;;24.73;49.07;99796.63;6245103;23;20020;-78
2022/09/19 04:13:39;;;;;;;3.47;2.15;;;;;;;24.78;48.68;99802.78;6218398;23;20026;-78
2022/09/19 04:16:06;;;;;;;5.22;2.47;;;;;;;24.94;48.43;99822.50;6218770;23;20023;-79
2022/09/19 04:18:34;;;;;;;3.13;1.73;;;;;;;25.18;47.97;99826.78;6245423;23;20024;-78
2022/09/19 04:21:01;;;;;;;4.60;2.13;;;;;;;25.28;47.50;99823.19;6217509;23;20028;-78
2022/09/19 04:23:28;;;;;;;3.00;1.90;;;;;;;25.29;47.26;99816.25;6243652;23;20024;-79
2022/09/19 04:25:55;;;;;;;5.47;2.65;;;;;;;25.21;47.17;99797.41;6218362;23;20028;-79
2022/09/19 04:28:22;;;;;;;3.75;2.28;;;;;;;25.33;46.81;99816.25;6243373;23;20383;-79
2022/09/19 04:30:50;;;;;;;2.95;1.95;;;;;;;25.27;46.89;99800.72;6241620;23;20059;-79
2022/09/19 04:33:18;;;;;;;2.67;1.77;;;;;;;25.17;46.45;99781.47;6218301;23;20020;-79
2022/09/19 04:35:45;;;;;;;3.17;1.90;;;;;;;25.47;46.35;99824.09;6242794;23;20020;-78
2022/09/19 04:38:17;;;;;;;4.40;2.53;;;;;;;25.11;46.34;99769.59;6245218;23;20024;-78
2022/09/19 04:40:47;;;;;;;4.57;2.45;;;;;;;25.35;45.85;99801.59;6243839;23;20032;-78
2022/09/19 04:43:18;;;;;;;3.25;1.60;;;;;;;25.51;45.89;99820.06;6241886;23;20028;-78
2022/09/19 04:45:48;;;;;;;6.20;2.25;;;;;;;25.40;45.74;99809.78;6214944;23;20028;-79
2022/09/19 04:48:16;;;;;;;2.55;1.75;;;;;;;25.39;45.90;99814.66;6244031;23;20020;-79
2022/09/19 04:50:45;;;;;;;5.80;2.15;;;;;;;25.46;45.84;99831.03;6217354;23;20422;-79
2022/09/19 04:53:13;;;;;;;3.28;2.17;;;;;;;25.13;45.86;99792.03;6216985;23;20031;-78
2022/09/19 04:55:40;;;;;;;1.27;1.02;;;;;;;25.08;45.66;99796.06;6243956;23;20024;-77
2022/09/19 04:58:07;;;;;;;4.18;2.63;;;;;;;25.20;45.73;99812.94;6243690;23;20324;-77
2022/09/19 05:00:38;;;;;;;4.28;2.83;;;;;;;25.28;46.05;99831.75;6215047;23;20020;-78
2022/09/19 05:03:12;;;;;;;3.97;2.33;;;;;;;25.05;46.52;99811.97;6216005;23;20082;-78
2022/09/19 05:05:44;;;;;;;2.50;1.73;;;;;;;25.11;46.39;99823.88;6216746;23;20451;-78
2022/09/19 05:08:15;;;;;;;3.05;2.10;;;;;;;25.24;46.21;99841.53;6243643;23;20020;-78
2022/09/19 05:10:42;;;;;;;4.70;2.45;;;;;;;25.18;46.12;99832.50;6217526;23;20020;-77
2022/09/19 05:13:12;;;;;;;3.83;2.33;;;;;;;25.18;46.06;99846.78;6242635;23;20111;-78
2022/09/19 05:15:41;;;;;;;2.45;1.60;;;;;;;25.05;46.46;99825.44;6244663;23;20020;-78
2022/09/19 05:18:10;;;;;;;4.75;2.28;;;;;;;24.97;46.95;99827.41;6245826;23;20031;-77
2022/09/19 05:20:38;;;;;;;4.80;2.78;;;;;;;24.90;47.07;99806.56;6242811;23;20035;-79
2022/09/19 05:23:06;;;;;;;6.00;2.38;;;;;;;25.04;46.98;99838.09;6240838;23;20024;-77
2022/09/19 05:25:37;;;;;;;5.15;3.15;;;;;;;24.95;47.36;99826.97;6216883;23;20030;-78
2022/09/19 05:28:06;;;;;;;4.10;2.90;;;;;;;24.93;47.09;99820.06;6215761;23;20032;-77
2022/09/19 05:30:34;;;;;;;7.95;3.13;;;;;;;24.83;47.17;99788.16;6242330;23;20100;-78
2022/09/19 05:33:02;;;;;;;6.72;3.10;;;;;;;25.02;46.75;99811.94;6217424;23;20020;-77
2022/09/19 05:35:31;;;;;;;6.22;3.05;;;;;;;25.19;47.12;99856.16;6243959;23;20074;-78
2022/09/19 05:37:58;;;;;;;5.88;2.72;;;;;;;25.08;47.83;99855.25;6217402;23;20016;-78
2022/09/19 05:40:26;;;;;;;6.28;2.90;;;;;;;25.01;47.64;99850.28;6242385;23;20035;-78
2022/09/19 05:43:01;;;;;;;4.68;2.85;;;;;;;24.90;48.10;99855.09;6216809;23;20502;-78
2022/09/19 05:45:29;;;;;;;4.95;2.75;;;;;;;24.96;47.76;99877.19;6217268;23;20494;-78
2022/09/19 05:48:00;;;;;;;10.20;2.80;;;;;;;24.86;47.57;99866.50;6217781;23;20027;-78
2022/09/19 05:50:27;;;;;;;6.65;2.42;;;;;;;24.71;48.15;99850.44;6217942;23;20024;-78
2022/09/19 05:55:40;;;;;;;4.32;3.10;;;;;;;24.64;48.10;99871.16;6244128;23;20024;-76
2022/09/19 05:58:08;;;;;;;4.78;3.00;;;;;;;24.68;47.95;99871.22;6244235;23;20027;-78
2022/09/19 06:00:37;;;;;;;6.68;3.47;;;;;;;24.71;48.05;99882.66;6217436;23;20027;-78
2022/09/19 06:03:06;;;;;;;5.85;3.10;;;;;;;24.56;48.10;99872.31;6244909;23;20035;-79
2022/09/19 06:05:43;;;;;;;6.22;3.17;;;;;;;24.47;48.26;99866.91;6245165;23;20024;-80
2022/09/19 06:08:13;;;;;;;7.95;4.20;;;;;;;24.57;48.23;99888.22;6243528;23;20020;-79
2022/09/19 06:10:42;;;;;;;7.22;3.65;;;;;;;24.47;48.38;99861.22;6219500;23;20020;-77
2022/09/19 06:13:18;;;;;;;6.88;3.72;;;;;;;24.49;48.48;99875.94;6215400;23;20036;-77
2022/09/19 06:15:46;;;;;;;7.78;3.42;;;;;;;24.56;48.48;99895.16;6216022;23;20047;-79
2022/09/19 06:18:13;;;;;;;5.43;2.67;;;;;;;24.45;48.88;99892.19;6244389;23;20024;-78
2022/09/19 06:20:42;;;;;;;6.50;2.78;;;;;;;24.35;48.94;99905.09;6244794;23;20347;-79
2022/09/19 06:23:10;;;;;;;10.20;4.30;;;;;;;23.88;49.83;99852.34;6243706;23;20024;-77
2022/09/19 06:25:38;;;;;;;4.30;2.45;;;;;;;24.09;49.34;99891.72;6215580;23;20027;-81
2022/09/19 06:28:10;;;;;;;4.88;2.83;;;;;;;24.15;49.48;99889.38;6216143;23;20047;-79
2022/09/19 06:30:38;;;;;;;5.45;3.03;;;;;;;24.12;49.19;99881.59;6239751;23;20351;-80
2022/09/19 06:33:06;;;;;;;5.80;2.53;;;;;;;24.03;48.87;99867.59;6215442;23;20024;-80
2022/09/19 06:35:34;;;;;;;4.40;2.72;;;;;;;24.28;48.69;99910.72;6216742;23;20028;-78
2022/09/19 06:38:04;;;;;;;9.40;2.42;;;;;;;24.34;48.37;99902.63;6216519;23;20016;-82
2022/09/19 06:40:31;;;;;;;4.57;2.83;;;;;;;24.33;48.38;99913.22;6242272;23;20031;-78
2022/09/19 06:43:00;;;;;;;4.10;2.70;;;;;;;24.54;48.54;99943.25;6241196;23;20024;-82
2022/09/19 06:45:40;;;;;;;5.53;3.30;;;;;;;24.35;48.54;99922.22;6241267;23;20022;-80
2022/09/19 06:48:09;;;;;;;6.05;3.45;;;;;;;24.37;48.90;99921.81;6217749;23;20076;-80
2022/09/19 06:50:36;;;;;;;5.07;2.78;;;;;;;24.28;48.85;99924.16;6217498;23;20353;-85
2022/09/19 06:53:03;;;;;;;3.88;2.75;;;;;;;24.09;49.48;99919.44;6218828;23;20034;-79
2022/09/19 06:55:30;;;;;;;6.88;2.92;;;;;;;24.32;49.40;99945.00;6244359;23;20031;-78
2022/09/19 06:57:58;;;;;;;4.47;2.80;;;;;;;24.27;49.38;99954.75;6215951;23;20030;-79
2022/09/19 07:00:27;;;;;;;4.28;2.88;;;;;;;24.01;49.63;99914.84;6215767;23;20362;-77
2022/09/19 07:03:07;;;;;;;5.13;2.90;;;;;;;24.21;49.34;99944.06;6215109;23;20020;-78
2022/09/19 07:05:36;;;;;;;4.90;3.03;;;;;;;24.18;49.51;99957.06;6213223;23;20459;-80
2022/09/19 07:08:03;;;;;;;3.63;2.47;;;;;;;23.95;49.38;99920.06;6241713;23;20024;-79
2022/09/19 07:10:30;;;;;;;5.93;2.78;;;;;;;24.14;49.07;99936.22;6215986;23;20020;-78
2022/09/19 07:13:01;;;;;;;5.65;2.63;;;;;;;24.40;48.88;99958.16;6240379;23;20020;-80
2022/09/19 07:15:29;;;;;;;5.25;2.75;;;;;;;24.31;49.02;99938.47;6217256;23;20476;-78
2022/09/19 07:17:56;;;;;;;7.45;2.38;;;;;;;24.19;48.85;99912.22;6217866;23;20025;-80
2022/09/19 07:20:24;;;;;;;4.82;2.83;;;;;;;24.63;48.34;99938.06;6244896;23;20113;-80
2022/09/19 07:23:13;;;;;;;7.03;2.60;;;;;;;24.97;48.04;99963.72;6217188;23;20020;-79
2022/09/19 07:25:41;;;;;;;3.92;2.63;;;;;;;25.28;47.36;99973.81;6217777;23;20343;-79
2022/09/19 07:28:11;;;;;;;6.90;2.63;;;;;;;25.48;47.04;99968.69;6242880;23;20024;-80
2022/09/19 07:30:39;;;;;;;5.28;2.85;;;;;;;25.56;46.32;99940.97;6215082;23;20024;-80
2022/09/19 07:33:07;;;;;;;5.13;2.65;;;;;;;25.98;45.89;99960.47;6217462;23;20024;-80
2022/09/19 07:35:36;;;;;;;5.68;2.95;;;;;;;26.34;45.17;99972.13;6214158;23;20034;-80
2022/09/19 07:38:10;;;;;;;6.97;2.92;;;;;;;26.61;44.93;99981.25;6215023;23;20039;-79
2022/09/19 07:40:37;;;;;;;8.02;2.40;;;;;;;26.79;44.30;99987.03;6241618;23;20020;-79
2022/09/19 07:43:04;;;;;;;5.72;1.95;;;;;;;27.04;43.58;99978.50;6242111;23;20024;-81
2022/09/19 07:45:34;;;;;;;5.82;2.70;;;;;;;26.98;43.36;99926.50;6242473;23;20024;-81
2022/09/19 07:48:02;;;;;;;5.57;3.03;;;;;;;27.37;43.21;99994.53;6220484;23;20027;-86
2022/09/19 07:50:30;;;;;;;5.60;2.15;;;;;;;27.13;42.02;99961.75;6217888;23;20035;-85
2022/09/19 07:53:05;;;;;;;5.60;2.33;;;;;;;27.49;41.35;99997.00;6218775;23;20028;-84
2022/09/19 07:55:33;;;;;;;6.82;2.40;;;;;;;27.55;41.51;100009.69;6246384;23;20020;-85
2022/09/19 07:58:02;;;;;;;5.68;2.90;;;;;;;27.32;41.10;99997.84;6215288;23;20024;-81
2022/09/19 08:00:30;;;;;;;3.80;2.65;;;;;;;27.02;41.51;99970.31;6219050;23;20024;-90
2022/09/19 08:03:00;;;;;;;6.25;2.45;;;;;;;27.54;41.62;100022.41;6218084;23;20090;-83
2022/09/19 08:05:36;;;;;;;3.45;2.10;;;;;;;27.51;41.34;99976.53;6217074;23;20028;-87
2022/09/19 08:08:04;;;;;;;5.32;2.50;;;;;;;27.90;40.61;100024.47;6225019;23;20004;-88
2022/09/19 08:10:32;;;;;;;8.75;2.88;;;;;;;28.24;40.75;100031.41;6220659;23;20035;-80
2022/09/19 08:13:06;;;;;;;5.05;2.67;;;;;;;28.43;39.99;100021.50;6239157;23;20020;-83
2022/09/19 08:15:34;;;;;;;6.88;2.58;;;;;;;28.61;39.55;100043.59;6213292;23;20376;-81
2022/09/19 08:18:13;;;;;;;6.43;2.78;;;;;;;28.77;39.12;100029.59;6241418;23;20016;-90
2022/09/19 08:20:41;;;;;;;4.88;3.10;;;;;;;28.83;38.85;100007.81;6216432;23;20030;-85
2022/09/19 08:23:13;;;;;;;3.92;2.30;;;;;;;29.18;38.29;100066.38;6241969;23;20038;-83
2022/09/19 08:25:46;;;;;;;5.18;3.10;;;;;;;29.23;38.38;100068.78;6216375;23;20020;-86
2022/09/19 08:28:17;;;;;;;5.68;2.70;;;;;;;29.19;38.10;100016.25;6215742;23;20027;-84
2022/09/19 08:30:45;;;;;;;3.47;1.70;;;;;;;29.57;37.16;100065.28;6216402;23;20060;-84
2022/09/19 08:33:12;;;;;;;9.45;2.53;;;;;;;29.65;36.91;100043.88;6215362;23;20024;-90
2022/09/19 08:35:41;;;;;;;3.78;2.10;;;;;;;29.84;36.31;100060.56;6216165;23;20070;-89
2022/09/19 08:38:11;;;;;;;3.92;2.20;;;;;;;30.34;35.52;100088.94;6246673;23;20455;-83
2022/09/19 08:40:43;;;;;;;4.10;2.40;;;;;;;30.89;35.67;100113.03;6215268;23;20046;-82
2022/09/19 08:43:34;;;;;;;5.50;2.78;;;;;;;31.24;34.50;100131.94;6214097;23;20024;-85
2022/09/19 08:46:33;;;;;;;5.78;2.47;;;;;;;31.43;34.67;100136.28;6215340;23;20039;-86
2022/09/19 08:49:02;;;;;;;4.20;2.20;;;;;;;31.42;34.38;100097.13;6214865;23;20024;-85
2022/09/19 08:51:39;;;;;;;7.97;2.10;;;;;;;31.79;34.44;100113.44;6241545;23;20363;-87
2022/09/19 08:54:13;;;;;;;4.82;2.40;;;;;;;31.88;33.94;100094.78;6193139;23;20505;-89
2022/09/19 08:56:42;;;;;;;5.68;2.20;;;;;;;32.09;33.40;100112.56;6216357;23;20091;-91
2022/09/19 08:59:20;;;;;;;;;;;;;;;32.20;34.69;100152.81;6222905;23;20016;-88
2022/09/19 09:01:48;;;;;;;3.38;2.30;;;;;;;32.53;34.19;100153.09;6243628;23;19921;-89
2022/09/19 09:04:35;;;;;;;4.20;2.10;;;;;;;32.45;33.06;100135.09;6226898;23;20016;-92
2022/09/19 09:07:16;;;;;;;5.38;3.05;;;;;;;32.47;32.84;100109.44;6242783;23;20028;-84
2022/09/19 09:10:02;;;;;;;;;;;;;;;32.87;32.65;100173.09;6242728;23;20016;-84
2022/09/19 09:12:44;;;;;;;3.58;2.10;;;;;;;32.99;32.29;100191.91;6237491;23;19916;-83
2022/09/19 09:15:20;;;;;;;4.03;2.17;;;;;;;32.84;31.70;100176.88;6240809;23;20020;-85
2022/09/19 09:18:31;;;;;;;3.15;2.35;;;;;;;32.67;32.23;100175.97;6219660;23;20027;-83
2022/09/19 09:21:10;;;;;;;4.07;2.00;;;;;;;32.76;32.04;100187.78;6214704;23;20048;-85
2022/09/19 09:23:41;;;;;;;6.60;2.17;;;;;;;32.90;32.19;100192.47;6215080;23;20526;-86
2022/09/19 09:26:38;;;;;;;4.80;1.90;;;;;;;32.14;32.24;100137.25;6213437;23;20016;-86
2022/09/19 09:29:12;;;;;;;4.45;2.22;;;;;;;32.88;32.20;100203.66;6216200;23;20016;-88
2022/09/19 09:31:44;;;;;;;5.60;2.33;;;;;;;32.89;31.66;100150.34;6220828;23;20024;-87
2022/09/19 09:34:30;;;;;;;6.63;2.30;;;;;;;32.53;31.92;100081.66;6246430;23;20017;-89
2022/09/19 09:37:03;;;;;;;5.82;2.42;;;;;;;33.37;31.72;100215.53;6220192;23;20020;-87
2022/09/19 09:39:58;;;;;;;2.75;1.85;;;;;;;33.41;30.96;100160.47;6243011;23;20020;-83
2022/09/19 09:42:52;;;;;;;3.72;2.33;;;;;;;33.69;31.11;100206.16;6216850;23;20090;-77
2022/09/19 09:45:34;;;;;;;3.85;1.88;;;;;;;33.81;31.31;100198.03;6215142;23;20074;-86
2022/09/19 09:48:19;;;;;;;4.03;1.90;;;;;;;33.70;31.13;100204.91;6245208;23;20398;-86
2022/09/19 09:51:01;;;;;;;3.70;2.10;;;;;;;32.91;30.84;100115.19;6243536;23;20024;-84
2022/09/19 09:54:04;;;;;;;4.63;1.95;;;;;;;33.35;30.63;100183.31;6244907;23;20024;-90
2022/09/19 09:56:39;;;;;;;5.65;2.75;;;;;;;33.51;30.83;100176.81;6216573;23;20015;-85
2022/09/19 10:05:55;;;;;;;8.18;2.47;;;;;;;33.22;31.33;100211.28;6243445;23;20288;-85
2022/09/19 10:08:28;;;;;;;5.05;3.10;;;;;;;33.33;30.89;100161.88;6214967;23;20459;-85
2022/09/19 10:11:05;;;;;;;4.13;1.75;;;;;;;33.39;30.16;100110.88;6240578;23;20464;-84
2022/09/19 10:14:04;;;;;;;3.08;1.90;;;;;;;34.00;30.18;100184.78;6239733;23;20086;-81
2022/09/19 10:16:34;;;;;;;1.98;1.70;;;;;;;34.58;30.45;100229.34;6217871;23;20030;-82
2022/09/19 10:19:25;;;;;;;4.60;2.53;;;;;;;34.79;30.27;100207.63;6243228;23;20031;-82
2022/09/19 10:21:56;;;;;;;3.30;1.85;;;;;;;34.91;30.24;100206.09;6244254;23;20024;-88
2022/09/19 10:24:45;;;;;;;4.00;2.08;;;;;;;34.78;29.89;100219.72;6251481;23;20024;-93
2022/09/19 10:27:27;;;;;;;4.22;2.05;;;;;;;34.40;29.81;100188.38;6219526;23;20012;-88
2022/09/19 10:30:00;;;;;;;2.75;1.63;;;;;;;34.39;29.98;100224.41;6245054;23;20030;-86
2022/09/19 10:32:39;;;;;;;4.82;2.15;;;;;;;33.67;30.26;100159.47;6216836;23;20110;-87
2022/09/19 10:35:34;;;;;;;2.42;1.80;;;;;;;34.43;30.27;100248.34;6217880;23;20020;-91
2022/09/19 10:38:15;;;;;;;7.53;1.85;;;;;;;34.54;30.33;100242.31;6250193;23;20070;-89
2022/09/19 10:40:56;;;;;;;3.40;2.00;;;;;;;34.39;30.29;100241.78;6224655;23;20534;-89
2022/09/19 10:43:30;;;;;;;2.92;1.52;;;;;;;33.85;30.32;100179.34;6218388;23;20067;-87
2022/09/19 10:46:06;;;;;;;3.67;2.05;;;;;;;33.35;30.89;100147.78;6244200;23;20103;-90
2022/09/19 10:48:37;;;;;;;2.72;1.90;;;;;;;33.66;30.53;100215.75;6216360;23;20047;-84
2022/09/19 10:51:10;;;;;;;3.22;2.10;;;;;;;33.82;30.63;100193.91;6244841;23;20044;-89
2022/09/19 10:53:40;;;;;;;5.38;2.13;;;;;;;34.07;30.53;100191.25;6243531;23;20023;-87
2022/09/19 10:56:22;;;;;;;3.45;1.60;;;;;;;34.61;30.18;100211.03;6213374;23;20068;-81
2022/09/19 10:59:03;;;;;;;3.85;2.20;;;;;;;34.87;30.29;100214.06;6241777;23;20024;-92
2022/09/19 11:01:30;;;;;;;4.65;1.80;;;;;;;35.27;29.82;100202.19;6216669;23;20463;-87
2022/09/19 11:04:03;;;;;;;2.88;1.98;;;;;;;36.03;29.42;100260.50;6217023;23;20026;-91
2022/09/19 11:06:32;;;;;;;4.55;2.53;;;;;;;36.34;29.44;100247.47;6217723;23;20032;-84
2022/09/19 11:08:59;;;;;;;5.78;2.70;;;;;;;36.36;28.83;100193.41;6244976;23;20023;-91
2022/09/19 11:11:38;;;;;;;3.27;2.30;;;;;;;36.80;28.22;100213.94;6249911;23;20099;-96
2022/09/19 11:14:07;;;;;;;3.72;2.50;;;;;;;37.16;28.00;100248.38;6224101;23;20022;-86
2022/09/19 11:17:02;;;;;;;4.22;2.60;;;;;;;37.02;28.30;100201.53;6225127;23;20052;-89
2022/09/19 11:19:32;;;;;;;6.43;2.33;;;;;;;37.53;28.25;100257.47;6206330;23;20063;-93
2022/09/19 11:22:23;;;;;;;4.07;2.10;;;;;;;37.57;28.22;100249.38;6222223;23;20028;-84
2022/09/19 11:25:18;;;;;;;5.70;2.90;;;;;;;37.58;27.10;100229.84;6242121;23;20024;-78
2022/09/19 11:28:12;;;;;;;6.68;3.47;;;;;;;36.97;27.78;100136.03;6215094;23;20030;-81
2022/09/19 11:30:51;;;;;;;6.00;2.50;;;;;;;37.82;27.44;100241.81;6247121;23;20028;-95
2022/09/19 11:33:21;;;;;;;6.75;2.78;;;;;;;37.66;27.04;100254.47;6232104;23;20047;-94
2022/09/19 11:36:25;;;;;;;3.65;2.28;;;;;;;36.18;27.81;100021.69;6235747;23;20328;-94
2022/09/19 11:43:01;;;;;;;7.43;3.00;;;;;;;38.35;26.58;100230.06;6153417;23;20080;-76
2022/09/19 11:45:56;;;;;;;4.13;2.55;;;;;;;38.35;26.49;100209.66;6173576;23;20021;-76
2022/09/19 11:49:00;;;;;;;3.50;2.13;;;;;;;38.77;25.74;100232.47;6175160;23;20025;-74
2022/09/19 11:51:30;;;;;;;4.95;2.80;;;;;;;39.05;25.15;100224.59;6125844;23;20040;-74
2022/09/19 11:54:14;;;;;;;6.25;2.33;;;;;;;39.26;25.17;100219.94;6151529;23;20388;-76
2022/09/19 11:57:08;;;;;;;4.65;2.13;;;;;;;39.50;24.83;100228.81;6151861;23;20031;-75
2022/09/19 11:59:51;;;;;;;4.28;2.25;;;;;;;39.96;24.35;100187.78;6150593;23;20465;-75
2022/09/19 12:02:28;;;;;;;5.97;2.13;;;;;;;40.83;23.59;100234.84;6126120;23;20022;-76
2022/09/19 12:05:01;;;;;;;2.92;2.00;;;;;;;41.02;22.99;100248.06;6150994;23;20021;-74
2022/09/19 12:08:07;;;;;;;4.70;2.58;;;;;;;41.33;23.14;100241.78;6152820;23;20028;-75
2022/09/19 12:10:43;;;;;;;5.00;2.60;;;;;;;41.30;22.73;100239.03;6125635;23;20036;-75
2022/09/19 12:13:10;;;;;;;5.68;2.30;;;;;;;41.83;22.21;100249.94;6143662;23;20104;-74
2022/09/19 12:15:43;;;;;;;5.07;2.70;;;;;;;42.38;21.14;100237.59;6150258;23;20026;-75
2022/09/19 12:18:17;;;;;;;3.45;2.63;;;;;;;42.69;21.19;100237.00;6152553;23;20441;-74
2022/09/19 12:20:55;;;;;;;6.03;2.70;;;;;;;42.74;20.89;100229.59;6152923;23;20116;-74
2022/09/19 12:26:47;;;;;;;3.78;2.28;;;;;;;43.21;21.07;100227.56;6149872;23;20025;-75